Terminal Aerodrome Forecast
Issued by NWS Jacksonville, FL

Home | Current Version | Previous Version | Text Only | Print | Product List | Glossary On
Versions: 1 2 3 4 5 6 7 8 9 10 11 12 13 14 15 16 17 18 19 20 21 22 23 24 25
847
FTUS42 KJAX 071455 AAA
TAFSSI
TAF AMD
KSSI 071455Z 0715/0812 28006KT P6SM BKN022
     FM072000 12004KT P6SM BKN020
     FM080300 29005KT P6SM BKN015 OVC020=

USA.gov is the U.S. government's official web portal to all federal, state and local government web resources and services.